sensor_id;sensor_type;location;lat;lon;timestamp;pressure;altitude;pressure_sealevel;temperature;humidity
42067;BME280;27734;47.028;28.820;2023-10-08T00:01:19;99931.10;;;17.15;42.64
42067;BME280;27734;47.028;28.820;2023-10-08T00:03:51;99932.01;;;17.13;42.77
42067;BME280;27734;47.028;28.820;2023-10-08T00:06:27;99933.75;;;17.12;42.43
42067;BME280;27734;47.028;28.820;2023-10-08T00:09:00;99937.31;;;17.16;42.61
42067;BME280;27734;47.028;28.820;2023-10-08T00:11:37;99940.83;;;17.15;42.91
42067;BME280;27734;47.028;28.820;2023-10-08T00:14:09;99929.36;;;17.17;42.85
42067;BME280;27734;47.028;28.820;2023-10-08T00:16:40;99918.75;;;17.22;42.86
42067;BME280;27734;47.028;28.820;2023-10-08T00:19:11;99907.23;;;17.28;42.81
42067;BME280;27734;47.028;28.820;2023-10-08T00:21:45;99902.83;;;17.33;42.90
42067;BME280;27734;47.028;28.820;2023-10-08T00:24:18;99904.57;;;17.37;43.12
42067;BME280;27734;47.028;28.820;2023-10-08T00:26:56;99904.56;;;17.40;42.79
42067;BME280;27734;47.028;28.820;2023-10-08T00:29:30;99897.48;;;17.42;42.85
42067;BME280;27734;47.028;28.820;2023-10-08T00:32:01;99894.83;;;17.43;43.16
42067;BME280;27734;47.028;28.820;2023-10-08T00:34:42;99893.08;;;17.46;43.30
42067;BME280;27734;47.028;28.820;2023-10-08T00:37:13;99892.17;;;17.48;43.11
42067;BME280;27734;47.028;28.820;2023-10-08T00:39:45;99890.42;;;17.50;43.25
42067;BME280;27734;47.028;28.820;2023-10-08T00:42:16;99877.15;;;17.52;43.10
42067;BME280;27734;47.028;28.820;2023-10-08T00:44:48;99878.89;;;17.54;43.16
42067;BME280;27734;47.028;28.820;2023-10-08T00:47:21;99879.79;;;17.56;43.31
42067;BME280;27734;47.028;28.820;2023-10-08T00:49:56;99872.70;;;17.58;42.95
42067;BME280;27734;47.028;28.820;2023-10-08T00:52:39;99875.34;;;17.61;43.38
42067;BME280;27734;47.028;28.820;2023-10-08T00:55:14;99871.81;;;17.64;43.17
42067;BME280;27734;47.028;28.820;2023-10-08T00:57:58;99875.33;;;17.66;42.76
42067;BME280;27734;47.028;28.820;2023-10-08T01:00:41;99868.23;;;17.68;43.09
42067;BME280;27734;47.028;28.820;2023-10-08T01:03:13;99869.14;;;17.70;43.01
42067;BME280;27734;47.028;28.820;2023-10-08T01:05:46;99875.32;;;17.69;43.45
42067;BME280;27734;47.028;28.820;2023-10-08T01:08:18;99877.97;;;17.72;43.24
42067;BME280;27734;47.028;28.820;2023-10-08T01:10:52;99870.87;;;17.73;43.42
42067;BME280;27734;47.028;28.820;2023-10-08T01:13:33;99873.53;;;17.73;43.33
42067;BME280;27734;47.028;28.820;2023-10-08T01:16:14;99869.13;;;17.75;43.22
42067;BME280;27734;47.028;28.820;2023-10-08T01:18:48;99860.25;;;17.76;43.18
42067;BME280;27734;47.028;28.820;2023-10-08T01:21:24;99862.89;;;17.79;43.36
42067;BME280;27734;47.028;28.820;2023-10-08T01:24:09;99854.94;;;17.79;43.30
42067;BME280;27734;47.028;28.820;2023-10-08T01:26:46;99853.18;;;17.81;43.46
42067;BME280;27734;47.028;28.820;2023-10-08T01:29:18;99856.70;;;17.82;43.45
42067;BME280;27734;47.028;28.820;2023-10-08T01:31:54;99857.58;;;17.82;43.42
42067;BME280;27734;47.028;28.820;2023-10-08T01:34:27;99854.91;;;17.85;43.30
42067;BME280;27734;47.028;28.820;2023-10-08T01:37:01;99847.86;;;17.84;43.28
42067;BME280;27734;47.028;28.820;2023-10-08T01:39:39;99854.03;;;17.85;43.34
42067;BME280;27734;47.028;28.820;2023-10-08T01:42:10;99856.70;;;17.83;43.24
42067;BME280;27734;47.028;28.820;2023-10-08T01:44:48;99847.86;;;17.84;43.33
42067;BME280;27734;47.028;28.820;2023-10-08T01:47:21;99844.30;;;17.84;43.40
42067;BME280;27734;47.028;28.820;2023-10-08T01:49:55;99847.86;;;17.84;43.34
42067;BME280;27734;47.028;28.820;2023-10-08T01:52:36;99838.12;;;17.83;43.41
42067;BME280;27734;47.028;28.820;2023-10-08T01:55:11;99831.02;;;17.85;43.58
42067;BME280;27734;47.028;28.820;2023-10-08T01:57:47;99831.92;;;17.86;43.46
42067;BME280;27734;47.028;28.820;2023-10-08T02:00:19;99829.27;;;17.86;43.62
42067;BME280;27734;47.028;28.820;2023-10-08T02:02:52;99824.84;;;17.86;43.47
42067;BME280;27734;47.028;28.820;2023-10-08T02:05:24;99827.48;;;17.88;43.51
42067;BME280;27734;47.028;28.820;2023-10-08T02:07:55;99836.34;;;17.90;43.75
42067;BME280;27734;47.028;28.820;2023-10-08T02:10:28;99831.94;;;17.90;43.56
42067;BME280;27734;47.028;28.820;2023-10-08T02:13:00;99825.72;;;17.91;43.73
42067;BME280;27734;47.028;28.820;2023-10-08T02:15:31;99832.80;;;17.92;43.51
42067;BME280;27734;47.028;28.820;2023-10-08T02:18:02;99816.88;;;17.94;43.85
42067;BME280;27734;47.028;28.820;2023-10-08T02:20:34;99815.09;;;17.94;43.83
42067;BME280;27734;47.028;28.820;2023-10-08T02:23:05;99805.34;;;17.95;43.69
42067;BME280;27734;47.028;28.820;2023-10-08T02:25:37;99803.59;;;17.95;43.87
42067;BME280;27734;47.028;28.820;2023-10-08T02:28:10;99805.34;;;17.96;43.78
42067;BME280;27734;47.028;28.820;2023-10-08T02:30:43;99802.68;;;17.96;43.93
42067;BME280;27734;47.028;28.820;2023-10-08T02:33:14;99798.28;;;17.95;43.94
42067;BME280;27734;47.028;28.820;2023-10-08T02:35:47;99785.02;;;17.95;44.08
42067;BME280;27734;47.028;28.820;2023-10-08T02:38:19;99784.11;;;17.95;43.90
42067;BME280;27734;47.028;28.820;2023-10-08T02:40:52;99784.11;;;17.95;43.90
42067;BME280;27734;47.028;28.820;2023-10-08T02:43:26;99789.41;;;17.96;44.09
42067;BME280;27734;47.028;28.820;2023-10-08T02:45:58;99785.88;;;17.98;44.18
42067;BME280;27734;47.028;28.820;2023-10-08T02:48:30;99781.44;;;17.98;44.04
42067;BME280;27734;47.028;28.820;2023-10-08T02:51:01;99775.26;;;17.98;44.29
42067;BME280;27734;47.028;28.820;2023-10-08T02:53:43;99769.95;;;17.98;44.06
42067;BME280;27734;47.028;28.820;2023-10-08T02:56:16;99766.41;;;17.99;44.31
42067;BME280;27734;47.028;28.820;2023-10-08T02:58:48;99762.84;;;18.00;43.98
42067;BME280;27734;47.028;28.820;2023-10-08T03:01:19;99763.75;;;18.00;44.30
42067;BME280;27734;47.028;28.820;2023-10-08T03:03:51;99752.23;;;18.00;44.05
42067;BME280;27734;47.028;28.820;2023-10-08T03:06:31;99757.53;;;18.01;44.31
42067;BME280;27734;47.028;28.820;2023-10-08T03:09:03;99759.33;;;17.99;44.19
42067;BME280;27734;47.028;28.820;2023-10-08T03:11:34;99754.02;;;17.99;44.27
42067;BME280;27734;47.028;28.820;2023-10-08T03:14:07;99749.58;;;18.00;44.14
42067;BME280;27734;47.028;28.820;2023-10-08T03:16:45;99738.96;;;18.00;44.48
42067;BME280;27734;47.028;28.820;2023-10-08T03:19:19;99736.30;;;18.00;44.17
42067;BME280;27734;47.028;28.820;2023-10-08T03:21:52;99730.11;;;18.01;44.49
42067;BME280;27734;47.028;28.820;2023-10-08T03:24:25;99723.94;;;18.00;44.37
42067;BME280;27734;47.028;28.820;2023-10-08T03:27:11;99719.50;;;18.01;44.34
42067;BME280;27734;47.028;28.820;2023-10-08T03:29:45;99725.66;;;18.03;44.47
42067;BME280;27734;47.028;28.820;2023-10-08T03:32:18;99726.56;;;18.05;44.32
42067;BME280;27734;47.028;28.820;2023-10-08T03:34:56;99721.23;;;18.06;44.20
42067;BME280;27734;47.028;28.820;2023-10-08T03:37:29;99718.57;;;18.08;44.41
42067;BME280;27734;47.028;28.820;2023-10-08T03:40:12;99723.86;;;18.11;44.39
42067;BME280;27734;47.028;28.820;2023-10-08T03:42:57;99717.65;;;18.10;44.44
42067;BME280;27734;47.028;28.820;2023-10-08T03:45:28;99708.80;;;18.11;44.29
42067;BME280;27734;47.028;28.820;2023-10-08T03:48:18;99715.88;;;18.14;44.36
42067;BME280;27734;47.028;28.820;2023-10-08T03:50:52;99713.22;;;18.14;44.36
42067;BME280;27734;47.028;28.820;2023-10-08T03:53:26;99716.75;;;18.13;44.33
42067;BME280;27734;47.028;28.820;2023-10-08T03:55:58;99708.79;;;18.13;44.59
42067;BME280;27734;47.028;28.820;2023-10-08T03:58:35;99707.91;;;18.14;44.65
42067;BME280;27734;47.028;28.820;2023-10-08T04:01:11;99706.13;;;18.14;44.59
42067;BME280;27734;47.028;28.820;2023-10-08T04:03:48;99710.55;;;18.16;44.71
42067;BME280;27734;47.028;28.820;2023-10-08T04:06:30;99704.34;;;18.15;44.51
42067;BME280;27734;47.028;28.820;2023-10-08T04:09:07;99708.78;;;18.14;44.41
42067;BME280;27734;47.028;28.820;2023-10-08T04:11:46;99699.93;;;18.16;44.46
42067;BME280;27734;47.028;28.820;2023-10-08T04:14:24;99704.34;;;18.15;44.58
42067;BME280;27734;47.028;28.820;2023-10-08T04:16:58;99698.14;;;18.16;44.68
42067;BME280;27734;47.028;28.820;2023-10-08T04:19:29;99697.27;;;18.17;44.61
42067;BME280;27734;47.028;28.820;2023-10-08T04:22:02;99702.58;;;18.17;44.65
42067;BME280;27734;47.028;28.820;2023-10-08T04:24:34;99691.94;;;18.19;44.56
42067;BME280;27734;47.028;28.820;2023-10-08T04:27:05;99687.50;;;18.19;44.79
42067;BME280;27734;47.028;28.820;2023-10-08T04:29:39;99687.50;;;18.19;44.64
42067;BME280;27734;47.028;28.820;2023-10-08T04:32:12;99691.02;;;18.20;44.86
42067;BME280;27734;47.028;28.820;2023-10-08T04:34:52;99703.42;;;18.21;44.94
42067;BME280;27734;47.028;28.820;2023-10-08T04:37:24;99696.32;;;18.21;44.88
42067;BME280;27734;47.028;28.820;2023-10-08T04:40:02;99691.91;;;18.23;44.93
42067;BME280;27734;47.028;28.820;2023-10-08T04:42:34;99692.77;;;18.25;44.77
42067;BME280;27734;47.028;28.820;2023-10-08T04:45:09;99691.88;;;18.26;44.76
42067;BME280;27734;47.028;28.820;2023-10-08T04:47:43;99697.16;;;18.29;44.93
42067;BME280;27734;47.028;28.820;2023-10-08T04:50:23;99698.03;;;18.30;44.86
42067;BME280;27734;47.028;28.820;2023-10-08T04:53:00;99702.45;;;18.32;45.33
42067;BME280;27734;47.028;28.820;2023-10-08T04:55:37;99697.99;;;18.35;44.94
42067;BME280;27734;47.028;28.820;2023-10-08T04:58:18;99695.33;;;18.36;45.02
42067;BME280;27734;47.028;28.820;2023-10-08T05:01:01;99687.36;;;18.36;45.07
42067;BME280;27734;47.028;28.820;2023-10-08T05:03:48;99700.62;;;18.38;45.20
42067;BME280;27734;47.028;28.820;2023-10-08T05:06:37;99707.72;;;18.37;45.09
42067;BME280;27734;47.028;28.820;2023-10-08T05:09:30;99710.38;;;18.37;45.06
42067;BME280;27734;47.028;28.820;2023-10-08T05:12:22;99708.59;;;18.38;45.08
42067;BME280;27734;47.028;28.820;2023-10-08T05:15:16;99713.02;;;18.39;44.65
42067;BME280;27734;47.028;28.820;2023-10-08T05:18:03;99716.55;;;18.39;45.39
42067;BME280;27734;47.028;28.820;2023-10-08T05:20:53;99713.89;;;18.39;45.20
42067;BME280;27734;47.028;28.820;2023-10-08T05:23:35;99718.30;;;18.42;45.40
42067;BME280;27734;47.028;28.820;2023-10-08T05:26:41;99713.84;;;18.44;45.64
42067;BME280;27734;47.028;28.820;2023-10-08T05:29:30;99719.16;;;18.44;45.03
42067;BME280;27734;47.028;28.820;2023-10-08T05:32:19;99712.94;;;18.45;45.36
42067;BME280;27734;47.028;28.820;2023-10-08T05:35:14;99711.18;;;18.45;45.36
42067;BME280;27734;47.028;28.820;2023-10-08T05:38:09;99719.13;;;18.47;45.36
42067;BME280;27734;47.028;28.820;2023-10-08T05:40:46;99707.59;;;18.48;45.21
42067;BME280;27734;47.028;28.820;2023-10-08T05:43:46;99705.84;;;18.48;45.51
42067;BME280;27734;47.028;28.820;2023-10-08T05:46:44;99713.78;;;18.52;45.41
42067;BME280;27734;47.028;28.820;2023-10-08T05:49:19;99711.99;;;18.52;45.29
42067;BME280;27734;47.028;28.820;2023-10-08T05:52:08;99707.52;;;18.56;45.44
42067;BME280;27734;47.028;28.820;2023-10-08T05:54:55;99681.83;;;18.59;45.46
42067;BME280;27734;47.028;28.820;2023-10-08T05:57:44;99680.02;;;18.61;45.64
42067;BME280;27734;47.028;28.820;2023-10-08T06:00:22;99691.48;;;18.65;45.76
42067;BME280;27734;47.028;28.820;2023-10-08T06:03:10;99684.41;;;18.67;45.59
42067;BME280;27734;47.028;28.820;2023-10-08T06:06:03;99679.06;;;18.70;45.43
42067;BME280;27734;47.028;28.820;2023-10-08T06:08:55;99678.09;;;18.76;45.61
42067;BME280;27734;47.028;28.820;2023-10-08T06:11:43;99670.95;;;18.82;45.74
42067;BME280;27734;47.028;28.820;2023-10-08T06:14:26;99675.33;;;18.88;45.95
42067;BME280;27734;47.028;28.820;2023-10-08T06:17:12;99670.80;;;18.96;45.53
42067;BME280;27734;47.028;28.820;2023-10-08T06:19:53;99671.63;;;19.03;45.99
42067;BME280;27734;47.028;28.820;2023-10-08T06:22:25;99660.91;;;19.11;45.71
42067;BME280;27734;47.028;28.820;2023-10-08T06:24:57;99652.84;;;19.17;45.46
42067;BME280;27734;47.028;28.820;2023-10-08T06:27:48;99646.52;;;19.24;46.01
42067;BME280;27734;47.028;28.820;2023-10-08T06:30:24;99644.69;;;19.31;45.98
42067;BME280;27734;47.028;28.820;2023-10-08T06:32:59;99642.81;;;19.37;45.32
42067;BME280;27734;47.028;28.820;2023-10-08T06:35:30;99638.27;;;19.44;45.86
42067;BME280;27734;47.028;28.820;2023-10-08T06:38:03;99647.05;;;19.49;45.25
42067;BME280;27734;47.028;28.820;2023-10-08T06:40:39;99648.77;;;19.55;46.25
42067;BME280;27734;47.028;28.820;2023-10-08T06:43:14;99646.88;;;19.62;45.26
42067;BME280;27734;47.028;28.820;2023-10-08T06:45:47;99660.09;;;19.68;45.99
42067;BME280;27734;47.028;28.820;2023-10-08T06:48:23;99650.28;;;19.73;45.64
42067;BME280;27734;47.028;28.820;2023-10-08T06:50:54;99651.09;;;19.80;45.74
42067;BME280;27734;47.028;28.820;2023-10-08T06:53:26;99652.79;;;19.85;45.79
42067;BME280;27734;47.028;28.820;2023-10-08T06:55:59;99652.77;;;19.87;45.70
42067;BME280;27734;47.028;28.820;2023-10-08T06:58:34;99655.41;;;19.88;45.68
42067;BME280;27734;47.028;28.820;2023-10-08T07:01:05;99656.27;;;19.89;45.83
42067;BME280;27734;47.028;28.820;2023-10-08T07:03:38;99662.46;;;19.89;45.06
42067;BME280;27734;47.028;28.820;2023-10-08T07:06:09;99666.83;;;19.95;45.32
42067;BME280;27734;47.028;28.820;2023-10-08T07:08:55;99668.44;;;20.04;45.50
42067;BME280;27734;47.028;28.820;2023-10-08T07:11:29;99661.20;;;20.14;45.00
42067;BME280;27734;47.028;28.820;2023-10-08T07:14:04;99673.44;;;20.24;44.97
42067;BME280;27734;47.028;28.820;2023-10-08T07:16:36;99680.42;;;20.31;45.61
42067;BME280;27734;47.028;28.820;2023-10-08T07:19:07;99677.63;;;20.39;45.21
42067;BME280;27734;47.028;28.820;2023-10-08T07:21:48;99680.16;;;20.46;45.61
42067;BME280;27734;47.028;28.820;2023-10-08T07:24:23;99674.69;;;20.54;44.51
42067;BME280;27734;47.028;28.820;2023-10-08T07:26:55;99670.17;;;20.58;45.07
42067;BME280;27734;47.028;28.820;2023-10-08T07:29:26;99677.19;;;20.63;45.32
42067;BME280;27734;47.028;28.820;2023-10-08T07:31:57;99670.91;;;20.68;45.12
42067;BME280;27734;47.028;28.820;2023-10-08T07:34:39;99676.15;;;20.72;45.44
42067;BME280;27734;47.028;28.820;2023-10-08T07:37:14;99672.47;;;20.79;45.01
42067;BME280;27734;47.028;28.820;2023-10-08T07:39:45;99673.28;;;20.83;45.11
42067;BME280;27734;47.028;28.820;2023-10-08T07:42:17;99680.23;;;20.92;45.02
42067;BME280;27734;47.028;28.820;2023-10-08T07:44:48;99710.25;;;21.01;44.43
42067;BME280;27734;47.028;28.820;2023-10-08T07:47:24;99719.93;;;21.07;44.80
42067;BME280;27734;47.028;28.820;2023-10-08T07:49:57;99733.33;;;21.04;45.16
42067;BME280;27734;47.028;28.820;2023-10-08T07:52:29;99743.41;;;20.88;45.69
42067;BME280;27734;47.028;28.820;2023-10-08T07:55:01;99763.41;;;20.61;45.71
42067;BME280;27734;47.028;28.820;2023-10-08T07:57:35;99782.60;;;20.27;47.09
42067;BME280;27734;47.028;28.820;2023-10-08T08:00:08;99788.49;;;19.90;46.74
42067;BME280;27734;47.028;28.820;2023-10-08T08:02:48;99804.02;;;19.51;46.93
42067;BME280;27734;47.028;28.820;2023-10-08T08:05:22;99816.77;;;19.21;47.45
42067;BME280;27734;47.028;28.820;2023-10-08T08:07:55;99825.87;;;18.98;47.50
42067;BME280;27734;47.028;28.820;2023-10-08T08:10:30;99829.53;;;18.80;48.04
42067;BME280;27734;47.028;28.820;2023-10-08T08:13:06;99830.56;;;18.65;48.20
42067;BME280;27734;47.028;28.820;2023-10-08T08:15:38;99831.56;;;18.49;49.63
42067;BME280;27734;47.028;28.820;2023-10-08T08:18:12;99828.20;;;18.22;49.19
42067;BME280;27734;47.028;28.820;2023-10-08T08:20:52;99855.77;;;17.95;50.28
42067;BME280;27734;47.028;28.820;2023-10-08T08:23:32;99851.41;;;17.78;50.11
42067;BME280;27734;47.028;28.820;2023-10-08T08:26:03;99847.01;;;17.70;50.28
42067;BME280;27734;47.028;28.820;2023-10-08T08:28:42;99860.29;;;17.65;50.68
42067;BME280;27734;47.028;28.820;2023-10-08T08:31:16;99847.05;;;17.56;50.73
42067;BME280;27734;47.028;28.820;2023-10-08T08:33:49;99862.99;;;17.48;50.73
42067;BME280;27734;47.028;28.820;2023-10-08T08:36:24;99870.08;;;17.46;50.92
42067;BME280;27734;47.028;28.820;2023-10-08T08:38:55;99870.09;;;17.40;51.31
42067;BME280;27734;47.028;28.820;2023-10-08T08:41:26;99871.00;;;17.36;51.78
42067;BME280;27734;47.028;28.820;2023-10-08T08:43:58;99885.16;;;17.25;51.60
42067;BME280;27734;47.028;28.820;2023-10-08T08:46:34;99880.73;;;17.20;51.34
42067;BME280;27734;47.028;28.820;2023-10-08T08:49:07;99894.89;;;17.20;51.69
42067;BME280;27734;47.028;28.820;2023-10-08T08:51:39;99906.38;;;17.16;52.55
42067;BME280;27734;47.028;28.820;2023-10-08T08:54:11;99910.80;;;17.06;52.61
42067;BME280;27734;47.028;28.820;2023-10-08T08:56:43;99909.89;;;16.94;53.27
42067;BME280;27734;47.028;28.820;2023-10-08T08:59:15;99914.28;;;16.84;53.19
42067;BME280;27734;47.028;28.820;2023-10-08T09:01:48;99913.40;;;16.73;53.64
42067;BME280;27734;47.028;28.820;2023-10-08T09:04:29;99904.55;;;16.60;53.34
42067;BME280;27734;47.028;28.820;2023-10-08T09:07:01;99923.95;;;16.52;53.26
42067;BME280;27734;47.028;28.820;2023-10-08T09:09:34;99946.89;;;16.43;54.05
42067;BME280;27734;47.028;28.820;2023-10-08T09:12:09;99969.75;;;16.17;55.74
42067;BME280;27734;47.028;28.820;2023-10-08T09:14:41;99976.68;;;15.97;53.86
42067;BME280;27734;47.028;28.820;2023-10-08T09:17:15;99992.49;;;15.86;55.31
42067;BME280;27734;47.028;28.820;2023-10-08T09:19:47;99997.64;;;15.64;56.06
42067;BME280;27734;47.028;28.820;2023-10-08T09:22:18;100013.25;;;15.32;55.43
42067;BME280;27734;47.028;28.820;2023-10-08T09:24:50;100007.69;;;15.03;56.10
42067;BME280;27734;47.028;28.820;2023-10-08T09:27:27;100020.73;;;14.86;57.27
42067;BME280;27734;47.028;28.820;2023-10-08T09:30:00;100037.09;;;14.55;57.89
42067;BME280;27734;47.028;28.820;2023-10-08T09:32:40;100033.27;;;14.33;57.29
42067;BME280;27734;47.028;28.820;2023-10-08T09:35:14;100029.48;;;14.13;58.37
42067;BME280;27734;47.028;28.820;2023-10-08T09:37:46;100030.97;;;13.92;59.02
42067;BME280;27734;47.028;28.820;2023-10-08T09:40:18;100071.05;;;13.68;60.06
42067;BME280;27734;47.028;28.820;2023-10-08T09:42:52;100071.54;;;13.45;60.89
42067;BME280;27734;47.028;28.820;2023-10-08T09:45:24;100092.12;;;13.19;60.21
42067;BME280;27734;47.028;28.820;2023-10-08T09:47:56;100108.57;;;13.06;63.34
42067;BME280;27734;47.028;28.820;2023-10-08T09:50:31;100096.73;;;12.85;62.26
42067;BME280;27734;47.028;28.820;2023-10-08T09:53:09;100116.63;;;12.71;62.75
42067;BME280;27734;47.028;28.820;2023-10-08T09:55:49;100141.67;;;12.52;64.96
42067;BME280;27734;47.028;28.820;2023-10-08T09:58:26;100137.40;;;12.17;66.85
42067;BME280;27734;47.028;28.820;2023-10-08T10:00:58;100140.20;;;11.90;66.41
42067;BME280;27734;47.028;28.820;2023-10-08T10:03:30;100146.87;;;11.76;65.80
42067;BME280;27734;47.028;28.820;2023-10-08T10:06:04;100169.20;;;11.58;66.69
42067;BME280;27734;47.028;28.820;2023-10-08T10:08:39;100173.22;;;11.44;66.76
42067;BME280;27734;47.028;28.820;2023-10-08T10:11:11;100170.17;;;11.28;67.22
42067;BME280;27734;47.028;28.820;2023-10-08T10:13:43;100169.05;;;11.20;66.13
42067;BME280;27734;47.028;28.820;2023-10-08T10:16:22;100163.58;;;11.12;66.84
42067;BME280;27734;47.028;28.820;2023-10-08T10:18:56;100158.41;;;11.15;65.97
42067;BME280;27734;47.028;28.820;2023-10-08T10:21:31;100147.33;;;11.26;66.18
42067;BME280;27734;47.028;28.820;2023-10-08T10:24:04;100149.28;;;11.33;66.04
42067;BME280;27734;47.028;28.820;2023-10-08T10:26:52;100171.30;;;11.38;66.09
42067;BME280;27734;47.028;28.820;2023-10-08T10:29:40;100184.35;;;11.35;65.77
42067;BME280;27734;47.028;28.820;2023-10-08T10:32:14;100179.27;;;11.41;65.00
42067;BME280;27734;47.028;28.820;2023-10-08T10:34:46;100185.56;;;11.48;65.45
42067;BME280;27734;47.028;28.820;2023-10-08T10:37:21;100189.10;;;11.48;65.08
42067;BME280;27734;47.028;28.820;2023-10-08T10:39:55;100197.07;;;11.51;65.02
42067;BME280;27734;47.028;28.820;2023-10-08T10:42:29;100194.61;;;11.59;65.15
42067;BME280;27734;47.028;28.820;2023-10-08T10:45:01;100201.70;;;11.62;65.18
42067;BME280;27734;47.028;28.820;2023-10-08T10:47:39;100192.16;;;11.65;65.41
42067;BME280;27734;47.028;28.820;2023-10-08T10:50:16;100188.80;;;11.71;64.84
42067;BME280;27734;47.028;28.820;2023-10-08T10:52:56;100192.44;;;11.76;64.61
42067;BME280;27734;47.028;28.820;2023-10-08T10:55:29;100183.83;;;11.82;65.25
42067;BME280;27734;47.028;28.820;2023-10-08T10:58:03;100191.83;;;11.86;65.09
42067;BME280;27734;47.028;28.820;2023-10-08T11:00:51;100186.61;;;11.88;65.12
42067;BME280;27734;47.028;28.820;2023-10-08T11:03:31;100183.11;;;11.87;65.26
42067;BME280;27734;47.028;28.820;2023-10-08T11:06:05;100183.26;;;11.92;64.94
42067;BME280;27734;47.028;28.820;2023-10-08T11:08:45;100187.68;;;11.95;65.01
42067;BME280;27734;47.028;28.820;2023-10-08T11:11:18;100199.23;;;12.00;65.58
42067;BME280;27734;47.028;28.820;2023-10-08T11:13:49;100192.98;;;11.96;64.68
42067;BME280;27734;47.028;28.820;2023-10-08T11:16:25;100191.27;;;11.97;64.67
42067;BME280;27734;47.028;28.820;2023-10-08T11:18:57;100195.64;;;11.98;64.66
42067;BME280;27734;47.028;28.820;2023-10-08T11:21:49;100191.38;;;12.01;64.43
42067;BME280;27734;47.028;28.820;2023-10-08T11:24:30;100197.67;;;12.08;64.36
42067;BME280;27734;47.028;28.820;2023-10-08T11:27:04;100199.50;;;12.12;63.93
42067;BME280;27734;47.028;28.820;2023-10-08T11:29:49;100196.11;;;12.16;63.57
42067;BME280;27734;47.028;28.820;2023-10-08T11:32:27;100204.03;;;12.18;63.35
42067;BME280;27734;47.028;28.820;2023-10-08T11:35:02;100212.08;;;12.24;63.28
42067;BME280;27734;47.028;28.820;2023-10-08T11:37:47;100214.89;;;12.32;62.56
42067;BME280;27734;47.028;28.820;2023-10-08T11:40:27;100216.80;;;12.37;62.73
42067;BME280;27734;47.028;28.820;2023-10-08T11:42:59;100214.20;;;12.39;62.50
42067;BME280;27734;47.028;28.820;2023-10-08T11:45:33;100213.40;;;12.43;61.78
42067;BME280;27734;47.028;28.820;2023-10-08T11:48:09;100207.33;;;12.46;61.66
42067;BME280;27734;47.028;28.820;2023-10-08T11:50:41;100207.30;;;12.44;60.86
42067;BME280;27734;47.028;28.820;2023-10-08T11:53:13;100203.75;;;12.42;60.93
42067;BME280;27734;47.028;28.820;2023-10-08T11:55:44;100212.63;;;12.47;61.00
42067;BME280;27734;47.028;28.820;2023-10-08T11:58:17;100216.17;;;12.49;60.55
42067;BME280;27734;47.028;28.820;2023-10-08T12:00:50;100210.14;;;12.53;60.79
42067;BME280;27734;47.028;28.820;2023-10-08T12:03:23;100216.31;;;12.55;60.51
42067;BME280;27734;47.028;28.820;2023-10-08T12:05:56;100221.58;;;12.55;60.09
42067;BME280;27734;47.028;28.820;2023-10-08T12:08:29;100213.58;;;12.51;60.10
42067;BME280;27734;47.028;28.820;2023-10-08T12:11:09;100207.44;;;12.50;59.88
42067;BME280;27734;47.028;28.820;2023-10-08T12:13:42;100197.83;;;12.52;59.88
42067;BME280;27734;47.028;28.820;2023-10-08T12:16:15;100209.37;;;12.57;59.58
42067;BME280;27734;47.028;28.820;2023-10-08T12:18:51;100208.45;;;12.57;59.10
42067;BME280;27734;47.028;28.820;2023-10-08T12:21:28;100203.09;;;12.52;59.12
42067;BME280;27734;47.028;28.820;2023-10-08T12:24:01;100203.02;;;12.49;58.84
42067;BME280;27734;47.028;28.820;2023-10-08T12:26:35;100199.39;;;12.44;57.72
42067;BME280;27734;47.028;28.820;2023-10-08T12:29:06;100200.09;;;12.37;57.83
42067;BME280;27734;47.028;28.820;2023-10-08T12:31:38;100208.75;;;12.31;57.43
42067;BME280;27734;47.028;28.820;2023-10-08T12:34:10;100215.58;;;12.25;56.58
42067;BME280;27734;47.028;28.820;2023-10-08T12:36:41;100209.30;;;12.18;55.92
42067;BME280;27734;47.028;28.820;2023-10-08T12:39:13;100229.34;;;12.13;55.84
42067;BME280;27734;47.028;28.820;2023-10-08T12:41:46;100237.20;;;12.11;55.60
42067;BME280;27734;47.028;28.820;2023-10-08T12:44:17;100231.86;;;12.08;55.49
42067;BME280;27734;47.028;28.820;2023-10-08T12:46:48;100236.16;;;12.04;55.48
42067;BME280;27734;47.028;28.820;2023-10-08T12:49:21;100245.65;;;11.99;55.05
42067;BME280;27734;47.028;28.820;2023-10-08T12:51:52;100237.64;;;11.95;54.93
42067;BME280;27734;47.028;28.820;2023-10-08T12:54:23;100244.61;;;11.93;54.72
42067;BME280;27734;47.028;28.820;2023-10-08T12:56:59;100247.09;;;11.88;54.93
42067;BME280;27734;47.028;28.820;2023-10-08T12:59:30;100248.75;;;11.84;55.79
42067;BME280;27734;47.028;28.820;2023-10-08T13:02:01;100260.30;;;11.58;57.23
42067;BME280;27734;47.028;28.820;2023-10-08T13:04:37;100255.02;;;11.26;57.80
42067;BME280;27734;47.028;28.820;2023-10-08T13:07:11;100265.61;;;10.99;58.50
42067;BME280;27734;47.028;28.820;2023-10-08T13:09:44;100283.95;;;10.70;59.58
42067;BME280;27734;47.028;28.820;2023-10-08T13:12:15;100271.78;;;10.45;59.08
42067;BME280;27734;47.028;28.820;2023-10-08T13:14:46;100278.08;;;10.24;60.71
42067;BME280;27734;47.028;28.820;2023-10-08T13:17:18;100282.80;;;10.08;60.10
42067;BME280;27734;47.028;28.820;2023-10-08T13:19:49;100277.08;;;9.95;61.18
42067;BME280;27734;47.028;28.820;2023-10-08T13:22:22;100267.22;;;9.87;61.23
42067;BME280;27734;47.028;28.820;2023-10-08T13:24:54;100271.36;;;9.81;62.97
42067;BME280;27734;47.028;28.820;2023-10-08T13:27:26;100276.16;;;9.68;62.83
42067;BME280;27734;47.028;28.820;2023-10-08T13:29:58;100288.22;;;9.63;63.24
42067;BME280;27734;47.028;28.820;2023-10-08T13:32:34;100283.75;;;9.61;64.93